sensor_id;sensor_type;location;lat;lon;timestamp;temperature;humidity
1461;DHT22;724;49.910;12.530;2024-01-15T00:01:01;-4.30;99.90
1461;DHT22;724;49.910;12.530;2024-01-15T00:03:27;-4.40;99.90
1461;DHT22;724;49.910;12.530;2024-01-15T00:05:54;-4.30;99.90
1461;DHT22;724;49.910;12.530;2024-01-15T00:08:21;-4.20;99.90
1461;DHT22;724;49.910;12.530;2024-01-15T00:10:49;-4.30;99.90
1461;DHT22;724;49.910;12.530;2024-01-15T00:13:16;-4.30;99.90
1461;DHT22;724;49.910;12.530;2024-01-15T00:15:43;-4.30;99.90
1461;DHT22;724;49.910;12.530;2024-01-15T00:18:10;-4.30;99.90
1461;DHT22;724;49.910;12.530;2024-01-15T00:20:36;-4.30;99.90
1461;DHT22;724;49.910;12.530;2024-01-15T00:23:03;-4.20;99.90
1461;DHT22;724;49.910;12.530;2024-01-15T00:25:30;-4.30;99.90
1461;DHT22;724;49.910;12.530;2024-01-15T00:27:58;-4.20;99.90
1461;DHT22;724;49.910;12.530;2024-01-15T00:30:25;-4.30;99.90
1461;DHT22;724;49.910;12.530;2024-01-15T00:32:52;-4.30;99.90
1461;DHT22;724;49.910;12.530;2024-01-15T00:35:19;-4.30;99.90
1461;DHT22;724;49.910;12.530;2024-01-15T00:37:45;-4.30;99.90
1461;DHT22;724;49.910;12.530;2024-01-15T00:40:12;-4.40;99.90
1461;DHT22;724;49.910;12.530;2024-01-15T00:42:39;-4.40;99.90
1461;DHT22;724;49.910;12.530;2024-01-15T00:45:08;-4.40;99.90
1461;DHT22;724;49.910;12.530;2024-01-15T00:47:35;-4.40;99.90
1461;DHT22;724;49.910;12.530;2024-01-15T00:50:01;-4.40;99.90
1461;DHT22;724;49.910;12.530;2024-01-15T00:52:28;-4.40;99.90
1461;DHT22;724;49.910;12.530;2024-01-15T00:54:55;-4.30;99.90
1461;DHT22;724;49.910;12.530;2024-01-15T00:57:22;-4.30;99.90
1461;DHT22;724;49.910;12.530;2024-01-15T00:59:48;-4.40;99.90
1461;DHT22;724;49.910;12.530;2024-01-15T01:02:16;-4.40;99.90
1461;DHT22;724;49.910;12.530;2024-01-15T01:04:43;-4.40;99.90
1461;DHT22;724;49.910;12.530;2024-01-15T01:07:10;-4.30;99.90
1461;DHT22;724;49.910;12.530;2024-01-15T01:09:37;-4.30;99.90
1461;DHT22;724;49.910;12.530;2024-01-15T01:12:04;-4.40;99.90
1461;DHT22;724;49.910;12.530;2024-01-15T01:14:31;-4.40;99.90
1461;DHT22;724;49.910;12.530;2024-01-15T01:16:58;-4.40;99.90
1461;DHT22;724;49.910;12.530;2024-01-15T01:19:26;-4.30;99.90
1461;DHT22;724;49.910;12.530;2024-01-15T01:21:53;-4.50;99.90
1461;DHT22;724;49.910;12.530;2024-01-15T01:24:19;-4.50;99.90
1461;DHT22;724;49.910;12.530;2024-01-15T01:26:46;-4.60;99.90
1461;DHT22;724;49.910;12.530;2024-01-15T01:29:13;-4.60;99.90
1461;DHT22;724;49.910;12.530;2024-01-15T01:31:43;-4.60;99.90
1461;DHT22;724;49.910;12.530;2024-01-15T01:34:10;-4.70;99.90
1461;DHT22;724;49.910;12.530;2024-01-15T01:36:39;-4.80;99.90
1461;DHT22;724;49.910;12.530;2024-01-15T01:39:05;-4.90;99.90
1461;DHT22;724;49.910;12.530;2024-01-15T01:41:32;-4.80;99.90
1461;DHT22;724;49.910;12.530;2024-01-15T01:43:59;-4.80;99.90
1461;DHT22;724;49.910;12.530;2024-01-15T01:46:27;-4.90;99.90
1461;DHT22;724;49.910;12.530;2024-01-15T01:48:55;-5.00;99.90
1461;DHT22;724;49.910;12.530;2024-01-15T01:51:23;-5.00;99.90
1461;DHT22;724;49.910;12.530;2024-01-15T01:53:52;-5.00;99.90
1461;DHT22;724;49.910;12.530;2024-01-15T01:56:19;-5.00;99.90
1461;DHT22;724;49.910;12.530;2024-01-15T01:58:47;-5.10;99.90
1461;DHT22;724;49.910;12.530;2024-01-15T02:01:15;-5.10;99.90
1461;DHT22;724;49.910;12.530;2024-01-15T02:03:43;-5.10;99.90
1461;DHT22;724;49.910;12.530;2024-01-15T02:06:10;-5.20;99.90
1461;DHT22;724;49.910;12.530;2024-01-15T02:08:37;-5.20;99.90
1461;DHT22;724;49.910;12.530;2024-01-15T02:11:05;-5.30;99.90
1461;DHT22;724;49.910;12.530;2024-01-15T02:13:32;-5.30;99.90
1461;DHT22;724;49.910;12.530;2024-01-15T02:15:59;-5.50;99.90
1461;DHT22;724;49.910;12.530;2024-01-15T02:18:26;-5.40;99.90
1461;DHT22;724;49.910;12.530;2024-01-15T02:20:52;-5.50;99.90
1461;DHT22;724;49.910;12.530;2024-01-15T02:23:20;-5.40;99.90
1461;DHT22;724;49.910;12.530;2024-01-15T02:25:47;-5.50;99.90
1461;DHT22;724;49.910;12.530;2024-01-15T02:28:15;-5.50;99.90
1461;DHT22;724;49.910;12.530;2024-01-15T02:30:43;-5.60;99.90
1461;DHT22;724;49.910;12.530;2024-01-15T02:33:11;-5.60;99.90
1461;DHT22;724;49.910;12.530;2024-01-15T02:35:37;-5.60;99.90
1461;DHT22;724;49.910;12.530;2024-01-15T02:38:05;-5.50;99.90
1461;DHT22;724;49.910;12.530;2024-01-15T02:40:34;-5.50;99.90
1461;DHT22;724;49.910;12.530;2024-01-15T02:43:01;-5.60;99.90
1461;DHT22;724;49.910;12.530;2024-01-15T02:45:28;-5.60;99.90
1461;DHT22;724;49.910;12.530;2024-01-15T02:47:54;-5.50;99.90
1461;DHT22;724;49.910;12.530;2024-01-15T02:50:21;-5.60;99.90
1461;DHT22;724;49.910;12.530;2024-01-15T02:52:48;-5.60;99.90
1461;DHT22;724;49.910;12.530;2024-01-15T02:55:15;-5.50;99.90
1461;DHT22;724;49.910;12.530;2024-01-15T02:57:43;-5.60;99.90
1461;DHT22;724;49.910;12.530;2024-01-15T03:00:10;-5.60;99.90
1461;DHT22;724;49.910;12.530;2024-01-15T03:02:39;-5.60;99.90
1461;DHT22;724;49.910;12.530;2024-01-15T03:05:06;-5.50;99.90
1461;DHT22;724;49.910;12.530;2024-01-15T03:07:33;-5.70;99.90
1461;DHT22;724;49.910;12.530;2024-01-15T03:10:00;-5.60;99.90
1461;DHT22;724;49.910;12.530;2024-01-15T03:12:27;-5.50;99.90
1461;DHT22;724;49.910;12.530;2024-01-15T03:14:55;-5.60;99.90
1461;DHT22;724;49.910;12.530;2024-01-15T03:17:22;-5.60;99.90
1461;DHT22;724;49.910;12.530;2024-01-15T03:19:49;-5.70;99.90
1461;DHT22;724;49.910;12.530;2024-01-15T03:22:16;-5.80;99.90
1461;DHT22;724;49.910;12.530;2024-01-15T03:24:43;-5.80;99.90
1461;DHT22;724;49.910;12.530;2024-01-15T03:27:10;-5.80;99.90
1461;DHT22;724;49.910;12.530;2024-01-15T03:29:36;-5.80;99.90
1461;DHT22;724;49.910;12.530;2024-01-15T03:32:05;-5.70;99.90
1461;DHT22;724;49.910;12.530;2024-01-15T03:34:32;-5.80;99.90
1461;DHT22;724;49.910;12.530;2024-01-15T03:36:58;-5.90;99.90
1461;DHT22;724;49.910;12.530;2024-01-15T03:39:25;-5.90;99.90
1461;DHT22;724;49.910;12.530;2024-01-15T03:41:52;-5.80;99.90
1461;DHT22;724;49.910;12.530;2024-01-15T03:44:19;-5.80;99.90
1461;DHT22;724;49.910;12.530;2024-01-15T03:46:45;-5.90;99.90
1461;DHT22;724;49.910;12.530;2024-01-15T03:49:14;-5.90;99.90
1461;DHT22;724;49.910;12.530;2024-01-15T03:51:40;-5.90;99.90
1461;DHT22;724;49.910;12.530;2024-01-15T03:54:07;-5.80;99.90
1461;DHT22;724;49.910;12.530;2024-01-15T03:56:34;-5.80;99.90
1461;DHT22;724;49.910;12.530;2024-01-15T03:59:01;-5.80;99.90
1461;DHT22;724;49.910;12.530;2024-01-15T04:01:28;-5.80;99.90
1461;DHT22;724;49.910;12.530;2024-01-15T04:03:55;-5.70;99.90
1461;DHT22;724;49.910;12.530;2024-01-15T04:06:23;-5.70;99.90
1461;DHT22;724;49.910;12.530;2024-01-15T04:08:50;-5.80;99.90
1461;DHT22;724;49.910;12.530;2024-01-15T04:11:17;-5.80;99.90
1461;DHT22;724;49.910;12.530;2024-01-15T04:13:43;-5.70;99.90
1461;DHT22;724;49.910;12.530;2024-01-15T04:16:10;-5.70;99.90
1461;DHT22;724;49.910;12.530;2024-01-15T04:18:37;-5.80;99.90
1461;DHT22;724;49.910;12.530;2024-01-15T04:21:04;-5.70;99.90
1461;DHT22;724;49.910;12.530;2024-01-15T04:23:33;-5.70;99.90
1461;DHT22;724;49.910;12.530;2024-01-15T04:25:59;-5.70;99.90
1461;DHT22;724;49.910;12.530;2024-01-15T04:28:26;-5.80;99.90
1461;DHT22;724;49.910;12.530;2024-01-15T04:30:53;-5.70;99.90
1461;DHT22;724;49.910;12.530;2024-01-15T04:33:20;-5.70;99.90
1461;DHT22;724;49.910;12.530;2024-01-15T04:35:46;-5.80;99.90
1461;DHT22;724;49.910;12.530;2024-01-15T04:38:13;-5.70;99.90
1461;DHT22;724;49.910;12.530;2024-01-15T04:40:41;-5.80;99.90
1461;DHT22;724;49.910;12.530;2024-01-15T04:43:08;-5.70;99.90
1461;DHT22;724;49.910;12.530;2024-01-15T04:45:35;-5.80;99.90
1461;DHT22;724;49.910;12.530;2024-01-15T04:48:02;-5.70;99.90
1461;DHT22;724;49.910;12.530;2024-01-15T04:50:29;-5.80;99.90
1461;DHT22;724;49.910;12.530;2024-01-15T04:52:55;-5.70;99.90
1461;DHT22;724;49.910;12.530;2024-01-15T04:55:22;-5.80;99.90
1461;DHT22;724;49.910;12.530;2024-01-15T04:57:50;-5.80;99.90
1461;DHT22;724;49.910;12.530;2024-01-15T05:00:17;-5.80;99.90
1461;DHT22;724;49.910;12.530;2024-01-15T05:02:45;-5.70;99.90
1461;DHT22;724;49.910;12.530;2024-01-15T05:05:11;-5.70;99.90
1461;DHT22;724;49.910;12.530;2024-01-15T05:07:39;-5.70;99.90
1461;DHT22;724;49.910;12.530;2024-01-15T05:10:06;-5.60;99.90
1461;DHT22;724;49.910;12.530;2024-01-15T05:12:33;-5.70;99.90
1461;DHT22;724;49.910;12.530;2024-01-15T05:15:02;-5.70;99.90
1461;DHT22;724;49.910;12.530;2024-01-15T05:17:29;-5.70;99.90
1461;DHT22;724;49.910;12.530;2024-01-15T05:19:56;-5.70;99.90
1461;DHT22;724;49.910;12.530;2024-01-15T05:22:23;-5.70;99.90
1461;DHT22;724;49.910;12.530;2024-01-15T05:24:50;-5.70;99.90
1461;DHT22;724;49.910;12.530;2024-01-15T05:27:17;-5.60;99.90
1461;DHT22;724;49.910;12.530;2024-01-15T05:29:43;-5.70;99.90
1461;DHT22;724;49.910;12.530;2024-01-15T05:32:11;-5.60;99.90
1461;DHT22;724;49.910;12.530;2024-01-15T05:34:38;-5.60;99.90
1461;DHT22;724;49.910;12.530;2024-01-15T05:37:05;-5.50;99.90
1461;DHT22;724;49.910;12.530;2024-01-15T05:39:32;-5.50;99.90
1461;DHT22;724;49.910;12.530;2024-01-15T05:41:59;-5.40;99.90
1461;DHT22;724;49.910;12.530;2024-01-15T05:44:26;-5.50;99.90
1461;DHT22;724;49.910;12.530;2024-01-15T05:47:00;-5.50;99.90
1461;DHT22;724;49.910;12.530;2024-01-15T05:49:33;-5.50;99.90
1461;DHT22;724;49.910;12.530;2024-01-15T05:51:59;-5.40;99.90
1461;DHT22;724;49.910;12.530;2024-01-15T05:54:26;-5.30;99.90
1461;DHT22;724;49.910;12.530;2024-01-15T05:56:53;-5.40;99.90
1461;DHT22;724;49.910;12.530;2024-01-15T05:59:19;-5.40;99.90
1461;DHT22;724;49.910;12.530;2024-01-15T06:01:46;-5.30;99.90
1461;DHT22;724;49.910;12.530;2024-01-15T06:04:14;-5.30;99.90
1461;DHT22;724;49.910;12.530;2024-01-15T06:06:42;-5.30;99.90
1461;DHT22;724;49.910;12.530;2024-01-15T06:09:09;-5.30;99.90
1461;DHT22;724;49.910;12.530;2024-01-15T06:11:35;-5.30;99.90
1461;DHT22;724;49.910;12.530;2024-01-15T06:14:02;-5.20;99.90
1461;DHT22;724;49.910;12.530;2024-01-15T06:16:29;-5.10;99.90
1461;DHT22;724;49.910;12.530;2024-01-15T06:18:56;-5.10;99.90
1461;DHT22;724;49.910;12.530;2024-01-15T06:21:23;-5.10;99.90
1461;DHT22;724;49.910;12.530;2024-01-15T06:23:51;-5.20;99.90
1461;DHT22;724;49.910;12.530;2024-01-15T06:26:18;-5.20;99.90
1461;DHT22;724;49.910;12.530;2024-01-15T06:28:44;-5.10;99.90
1461;DHT22;724;49.910;12.530;2024-01-15T06:31:12;-5.10;99.90
1461;DHT22;724;49.910;12.530;2024-01-15T06:33:38;-5.10;99.90
1461;DHT22;724;49.910;12.530;2024-01-15T06:36:06;-5.00;99.90
1461;DHT22;724;49.910;12.530;2024-01-15T06:38:33;-5.00;99.90
1461;DHT22;724;49.910;12.530;2024-01-15T06:41:01;-5.10;99.90
1461;DHT22;724;49.910;12.530;2024-01-15T06:43:28;-5.10;99.90
1461;DHT22;724;49.910;12.530;2024-01-15T06:45:55;-5.00;99.90
1461;DHT22;724;49.910;12.530;2024-01-15T06:48:21;-5.00;99.90
1461;DHT22;724;49.910;12.530;2024-01-15T06:50:48;-5.00;99.90
1461;DHT22;724;49.910;12.530;2024-01-15T06:53:15;-5.00;99.90
1461;DHT22;724;49.910;12.530;2024-01-15T06:55:42;-4.90;99.90
1461;DHT22;724;49.910;12.530;2024-01-15T06:58:10;-5.00;99.90
1461;DHT22;724;49.910;12.530;2024-01-15T07:00:37;-5.00;99.90
1461;DHT22;724;49.910;12.530;2024-01-15T07:03:04;-5.00;99.90
1461;DHT22;724;49.910;12.530;2024-01-15T07:05:31;-5.00;99.90
1461;DHT22;724;49.910;12.530;2024-01-15T07:08:11;-4.90;99.90
1461;DHT22;724;49.910;12.530;2024-01-15T07:10:42;-5.00;99.90
1461;DHT22;724;49.910;12.530;2024-01-15T07:13:11;-5.00;99.90
1461;DHT22;724;49.910;12.530;2024-01-15T07:15:38;-5.00;99.90
1461;DHT22;724;49.910;12.530;2024-01-15T07:18:05;-4.90;99.90
1461;DHT22;724;49.910;12.530;2024-01-15T07:20:35;-4.90;99.90
1461;DHT22;724;49.910;12.530;2024-01-15T07:23:05;-4.90;99.90
1461;DHT22;724;49.910;12.530;2024-01-15T07:25:32;-4.90;99.90
1461;DHT22;724;49.910;12.530;2024-01-15T07:27:59;-4.80;99.90
1461;DHT22;724;49.910;12.530;2024-01-15T07:30:27;-4.80;99.90
1461;DHT22;724;49.910;12.530;2024-01-15T07:32:54;-4.70;99.90
1461;DHT22;724;49.910;12.530;2024-01-15T07:35:21;-4.80;99.90
1461;DHT22;724;49.910;12.530;2024-01-15T07:37:48;-4.80;99.90
1461;DHT22;724;49.910;12.530;2024-01-15T07:40:15;-4.70;99.90
1461;DHT22;724;49.910;12.530;2024-01-15T07:42:42;-4.70;99.90
1461;DHT22;724;49.910;12.530;2024-01-15T07:45:09;-4.70;99.90
1461;DHT22;724;49.910;12.530;2024-01-15T07:47:37;-4.70;99.90
1461;DHT22;724;49.910;12.530;2024-01-15T07:50:05;-4.70;99.90
1461;DHT22;724;49.910;12.530;2024-01-15T07:52:32;-4.70;99.90
1461;DHT22;724;49.910;12.530;2024-01-15T07:54:58;-4.60;99.90
1461;DHT22;724;49.910;12.530;2024-01-15T07:57:26;-4.60;99.90
1461;DHT22;724;49.910;12.530;2024-01-15T07:59:53;-4.50;99.90
1461;DHT22;724;49.910;12.530;2024-01-15T08:02:20;-4.50;99.90
1461;DHT22;724;49.910;12.530;2024-01-15T08:04:48;-4.40;99.90
1461;DHT22;724;49.910;12.530;2024-01-15T08:07:15;-4.50;99.90
1461;DHT22;724;49.910;12.530;2024-01-15T08:09:43;-4.40;99.90
1461;DHT22;724;49.910;12.530;2024-01-15T08:12:12;-4.40;99.90
1461;DHT22;724;49.910;12.530;2024-01-15T08:14:38;-4.40;99.90
1461;DHT22;724;49.910;12.530;2024-01-15T08:17:05;-4.30;99.90
1461;DHT22;724;49.910;12.530;2024-01-15T08:19:32;-4.30;99.90
1461;DHT22;724;49.910;12.530;2024-01-15T08:22:00;-4.30;99.90
1461;DHT22;724;49.910;12.530;2024-01-15T08:24:27;-4.30;99.90
1461;DHT22;724;49.910;12.530;2024-01-15T08:26:54;-4.40;99.90
1461;DHT22;724;49.910;12.530;2024-01-15T08:29:21;-4.30;99.90
1461;DHT22;724;49.910;12.530;2024-01-15T08:31:50;-4.30;99.90
1461;DHT22;724;49.910;12.530;2024-01-15T08:34:16;-4.20;99.90
1461;DHT22;724;49.910;12.530;2024-01-15T08:36:43;-4.20;99.90
1461;DHT22;724;49.910;12.530;2024-01-15T08:39:11;-4.20;99.90
1461;DHT22;724;49.910;12.530;2024-01-15T08:41:38;-4.10;99.90
1461;DHT22;724;49.910;12.530;2024-01-15T08:44:05;-4.10;99.90
1461;DHT22;724;49.910;12.530;2024-01-15T08:46:31;-3.90;99.90
1461;DHT22;724;49.910;12.530;2024-01-15T08:48:58;-3.80;99.90
1461;DHT22;724;49.910;12.530;2024-01-15T08:51:25;-3.60;99.90
1461;DHT22;724;49.910;12.530;2024-01-15T08:53:52;-3.50;99.90
1461;DHT22;724;49.910;12.530;2024-01-15T08:56:20;-3.70;99.90
1461;DHT22;724;49.910;12.530;2024-01-15T08:58:46;-3.80;99.90
1461;DHT22;724;49.910;12.530;2024-01-15T09:01:14;-3.80;99.90
1461;DHT22;724;49.910;12.530;2024-01-15T09:03:41;-3.80;99.90
1461;DHT22;724;49.910;12.530;2024-01-15T09:06:08;-3.80;99.90
1461;DHT22;724;49.910;12.530;2024-01-15T09:08:35;-3.80;92.80
1461;DHT22;724;49.910;12.530;2024-01-15T09:11:02;-3.70;63.10
1461;DHT22;724;49.910;12.530;2024-01-15T09:13:30;-3.80;1.00
1461;DHT22;724;49.910;12.530;2024-01-15T09:15:57;-3.90;1.00
1461;DHT22;724;49.910;12.530;2024-01-15T09:18:24;-3.90;12.90
1461;DHT22;724;49.910;12.530;2024-01-15T09:20:51;-3.90;23.20
1461;DHT22;724;49.910;12.530;2024-01-15T09:23:18;-3.90;99.90
1461;DHT22;724;49.910;12.530;2024-01-15T09:25:44;-3.90;99.90
1461;DHT22;724;49.910;12.530;2024-01-15T09:28:11;-3.90;99.90
1461;DHT22;724;49.910;12.530;2024-01-15T09:30:39;-3.90;99.90
1461;DHT22;724;49.910;12.530;2024-01-15T09:33:06;-4.00;99.90
1461;DHT22;724;49.910;12.530;2024-01-15T09:35:33;-4.00;99.90
1461;DHT22;724;49.910;12.530;2024-01-15T09:37:59;-4.00;99.90
1461;DHT22;724;49.910;12.530;2024-01-15T09:40:31;-3.90;99.90
1461;DHT22;724;49.910;12.530;2024-01-15T09:42:58;-3.90;99.90
1461;DHT22;724;49.910;12.530;2024-01-15T09:45:26;-3.80;99.90
1461;DHT22;724;49.910;12.530;2024-01-15T09:47:54;-3.80;99.90
1461;DHT22;724;49.910;12.530;2024-01-15T09:50:21;-3.70;99.90
1461;DHT22;724;49.910;12.530;2024-01-15T09:52:48;-3.70;99.90
1461;DHT22;724;49.910;12.530;2024-01-15T09:55:17;-3.70;99.90
1461;DHT22;724;49.910;12.530;2024-01-15T09:57:44;-3.80;99.90
1461;DHT22;724;49.910;12.530;2024-01-15T10:00:11;-3.80;99.90
1461;DHT22;724;49.910;12.530;2024-01-15T10:02:38;-3.90;99.90
1461;DHT22;724;49.910;12.530;2024-01-15T10:05:07;-3.80;99.90
1461;DHT22;724;49.910;12.530;2024-01-15T10:07:36;-3.70;99.90
1461;DHT22;724;49.910;12.530;2024-01-15T10:10:04;-3.70;99.90
1461;DHT22;724;49.910;12.530;2024-01-15T10:12:31;-3.70;99.90
1461;DHT22;724;49.910;12.530;2024-01-15T10:14:58;-3.80;99.90
1461;DHT22;724;49.910;12.530;2024-01-15T10:17:25;-3.90;99.90
1461;DHT22;724;49.910;12.530;2024-01-15T10:19:52;-4.00;99.90
1461;DHT22;724;49.910;12.530;2024-01-15T10:22:20;-3.90;99.90
1461;DHT22;724;49.910;12.530;2024-01-15T10:24:47;-3.80;99.90
1461;DHT22;724;49.910;12.530;2024-01-15T10:27:14;-3.70;99.90
1461;DHT22;724;49.910;12.530;2024-01-15T10:29:42;-3.70;99.90
1461;DHT22;724;49.910;12.530;2024-01-15T10:32:09;-3.80;99.90
1461;DHT22;724;49.910;12.530;2024-01-15T10:34:37;-3.70;99.90
1461;DHT22;724;49.910;12.530;2024-01-15T10:37:06;-3.90;99.90
1461;DHT22;724;49.910;12.530;2024-01-15T10:39:35;-3.80;99.90
1461;DHT22;724;49.910;12.530;2024-01-15T10:42:02;-3.70;99.90
1461;DHT22;724;49.910;12.530;2024-01-15T10:44:31;-3.70;99.90
1461;DHT22;724;49.910;12.530;2024-01-15T10:46:58;-3.70;90.20
1461;DHT22;724;49.910;12.530;2024-01-15T10:49:26;-3.70;1.00
1461;DHT22;724;49.910;12.530;2024-01-15T10:51:54;-3.80;1.00
1461;DHT22;724;49.910;12.530;2024-01-15T10:54:23;-3.80;1.00
1461;DHT22;724;49.910;12.530;2024-01-15T10:56:51;-3.80;1.00
1461;DHT22;724;49.910;12.530;2024-01-15T10:59:20;-3.70;1.00
1461;DHT22;724;49.910;12.530;2024-01-15T11:01:48;-3.60;1.00
1461;DHT22;724;49.910;12.530;2024-01-15T11:04:15;-3.60;1.00
1461;DHT22;724;49.910;12.530;2024-01-15T11:06:44;-3.60;1.00
1461;DHT22;724;49.910;12.530;2024-01-15T11:09:12;-3.60;1.00
1461;DHT22;724;49.910;12.530;2024-01-15T11:11:41;-3.40;1.00
1461;DHT22;724;49.910;12.530;2024-01-15T11:14:10;-3.40;1.00
1461;DHT22;724;49.910;12.530;2024-01-15T11:16:55;-3.50;99.90
1461;DHT22;724;49.910;12.530;2024-01-15T11:19:24;-3.60;99.90
1461;DHT22;724;49.910;12.530;2024-01-15T11:21:50;-3.50;1.00
1461;DHT22;724;49.910;12.530;2024-01-15T11:24:34;-3.50;99.90
1461;DHT22;724;49.910;12.530;2024-01-15T11:27:19;-3.70;1.00
1461;DHT22;724;49.910;12.530;2024-01-15T11:30:14;-3.40;1.00
1461;DHT22;724;49.910;12.530;2024-01-15T11:32:46;-3.60;1.00
1461;DHT22;724;49.910;12.530;2024-01-15T11:35:13;-3.70;1.00
1461;DHT22;724;49.910;12.530;2024-01-15T11:37:59;-3.70;1.00
1461;DHT22;724;49.910;12.530;2024-01-15T11:40:39;-3.60;1.00
1461;DHT22;724;49.910;12.530;2024-01-15T11:43:08;-3.60;1.00
1461;DHT22;724;49.910;12.530;2024-01-15T11:45:37;-3.60;1.00
1461;DHT22;724;49.910;12.530;2024-01-15T11:48:10;-3.50;1.00
1461;DHT22;724;49.910;12.530;2024-01-15T11:50:40;-3.40;99.90
1461;DHT22;724;49.910;12.530;2024-01-15T11:53:13;-3.50;99.90
1461;DHT22;724;49.910;12.530;2024-01-15T11:55:44;-3.60;99.90
1461;DHT22;724;49.910;12.530;2024-01-15T11:58:11;-3.70;99.90
1461;DHT22;724;49.910;12.530;2024-01-15T12:00:43;-3.50;99.90
1461;DHT22;724;49.910;12.530;2024-01-15T12:03:10;-3.60;99.90
1461;DHT22;724;49.910;12.530;2024-01-15T12:05:38;-3.50;99.90
1461;DHT22;724;49.910;12.530;2024-01-15T12:08:05;-3.60;99.90
1461;DHT22;724;49.910;12.530;2024-01-15T12:10:36;-3.70;99.90
1461;DHT22;724;49.910;12.530;2024-01-15T12:13:10;-3.50;99.90
1461;DHT22;724;49.910;12.530;2024-01-15T12:15:37;-3.60;99.90
1461;DHT22;724;49.910;12.530;2024-01-15T12:18:08;-3.60;99.90
1461;DHT22;724;49.910;12.530;2024-01-15T12:20:36;-3.60;99.90
1461;DHT22;724;49.910;12.530;2024-01-15T12:23:03;-3.50;99.90
1461;DHT22;724;49.910;12.530;2024-01-15T12:25:30;-3.50;99.90
1461;DHT22;724;49.910;12.530;2024-01-15T12:27:58;-3.50;99.90
1461;DHT22;724;49.910;12.530;2024-01-15T12:30:26;-3.50;99.90
1461;DHT22;724;49.910;12.530;2024-01-15T12:32:54;-3.60;99.90
1461;DHT22;724;49.910;12.530;2024-01-15T12:35:24;-3.60;99.90
1461;DHT22;724;49.910;12.530;2024-01-15T12:37:51;-3.50;1.00
1461;DHT22;724;49.910;12.530;2024-01-15T12:40:19;-3.60;99.90
1461;DHT22;724;49.910;12.530;2024-01-15T12:42:49;-3.60;1.00
1461;DHT22;724;49.910;12.530;2024-01-15T12:45:18;-3.50;1.00
1461;DHT22;724;49.910;12.530;2024-01-15T12:47:47;-3.40;1.00
1461;DHT22;724;49.910;12.530;2024-01-15T12:50:14;-3.50;1.00
1461;DHT22;724;49.910;12.530;2024-01-15T12:52:42;-3.40;1.00
1461;DHT22;724;49.910;12.530;2024-01-15T12:55:14;-3.40;1.00
1461;DHT22;724;49.910;12.530;2024-01-15T12:57:42;-3.40;1.00
1461;DHT22;724;49.910;12.530;2024-01-15T13:00:11;-3.50;1.00
1461;DHT22;724;49.910;12.530;2024-01-15T13:02:38;-3.50;1.00
1461;DHT22;724;49.910;12.530;2024-01-15T13:05:09;-3.50;1.00
1461;DHT22;724;49.910;12.530;2024-01-15T13:07:36;-3.50;21.30
1461;DHT22;724;49.910;12.530;2024-01-15T13:10:05;-3.50;79.90
1461;DHT22;724;49.910;12.530;2024-01-15T13:12:33;-3.50;95.30
1461;DHT22;724;49.910;12.530;2024-01-15T13:15:00;-3.40;99.90
1461;DHT22;724;49.910;12.530;2024-01-15T13:17:28;-3.50;99.90
1461;DHT22;724;49.910;12.530;2024-01-15T13:19:55;-3.40;99.90
1461;DHT22;724;49.910;12.530;2024-01-15T13:22:22;-3.40;99.90
1461;DHT22;724;49.910;12.530;2024-01-15T13:24:55;-3.50;99.90
1461;DHT22;724;49.910;12.530;2024-01-15T13:27:23;-3.30;99.90
1461;DHT22;724;49.910;12.530;2024-01-15T13:29:49;-3.40;99.90
1461;DHT22;724;49.910;12.530;2024-01-15T13:32:23;-3.40;99.90
1461;DHT22;724;49.910;12.530;2024-01-15T13:34:51;-3.30;99.90
1461;DHT22;724;49.910;12.530;2024-01-15T13:37:17;-3.40;82.80
1461;DHT22;724;49.910;12.530;2024-01-15T13:39:44;-3.40;99.90
1461;DHT22;724;49.910;12.530;2024-01-15T13:45:07;-3.40;99.90
1461;DHT22;724;49.910;12.530;2024-01-15T13:47:34;-3.30;99.90
1461;DHT22;724;49.910;12.530;2024-01-15T13:50:03;-3.30;99.90
1461;DHT22;724;49.910;12.530;2024-01-15T13:52:30;-3.40;99.90
1461;DHT22;724;49.910;12.530;2024-01-15T13:54:57;-3.40;99.90
1461;DHT22;724;49.910;12.530;2024-01-15T13:57:25;-3.40;99.90
1461;DHT22;724;49.910;12.530;2024-01-15T13:59:52;-3.40;99.90
1461;DHT22;724;49.910;12.530;2024-01-15T14:02:18;-3.30;99.90
1461;DHT22;724;49.910;12.530;2024-01-15T14:04:46;-3.40;99.90
1461;DHT22;724;49.910;12.530;2024-01-15T14:07:13;-3.30;99.90
1461;DHT22;724;49.910;12.530;2024-01-15T14:09:39;-3.40;99.90
1461;DHT22;724;49.910;12.530;2024-01-15T14:12:09;-3.30;99.90
1461;DHT22;724;49.910;12.530;2024-01-15T14:14:37;-3.20;99.90
1461;DHT22;724;49.910;12.530;2024-01-15T14:17:04;-3.20;99.90
1461;DHT22;724;49.910;12.530;2024-01-15T14:19:31;-3.20;99.90
1461;DHT22;724;49.910;12.530;2024-01-15T14:21:58;-3.20;99.90
1461;DHT22;724;49.910;12.530;2024-01-15T14:24:25;-3.20;99.90
1461;DHT22;724;49.910;12.530;2024-01-15T14:26:52;-3.20;99.90
1461;DHT22;724;49.910;12.530;2024-01-15T14:29:21;-3.30;99.90
1461;DHT22;724;49.910;12.530;2024-01-15T14:31:52;-3.20;99.90
1461;DHT22;724;49.910;12.530;2024-01-15T14:34:19;-3.20;99.90
1461;DHT22;724;49.910;12.530;2024-01-15T14:36:49;-3.20;99.90
1461;DHT22;724;49.910;12.530;2024-01-15T14:39:16;-3.10;99.90
1461;DHT22;724;49.910;12.530;2024-01-15T14:41:44;-3.20;99.90
1461;DHT22;724;49.910;12.530;2024-01-15T14:44:11;-3.10;99.90
1461;DHT22;724;49.910;12.530;2024-01-15T14:46:39;-3.10;99.90
1461;DHT22;724;49.910;12.530;2024-01-15T14:49:07;-3.10;99.90
1461;DHT22;724;49.910;12.530;2024-01-15T14:51:34;-3.10;99.90
1461;DHT22;724;49.910;12.530;2024-01-15T14:54:01;-3.10;99.90
1461;DHT22;724;49.910;12.530;2024-01-15T14:56:28;-3.10;99.90
1461;DHT22;724;49.910;12.530;2024-01-15T14:58:55;-3.10;99.90
1461;DHT22;724;49.910;12.530;2024-01-15T15:01:23;-3.20;99.90
1461;DHT22;724;49.910;12.530;2024-01-15T15:03:50;-3.10;99.90
1461;DHT22;724;49.910;12.530;2024-01-15T15:06:19;-3.10;99.90
1461;DHT22;724;49.910;12.530;2024-01-15T15:08:46;-3.10;99.90
1461;DHT22;724;49.910;12.530;2024-01-15T15:11:13;-3.10;99.90
1461;DHT22;724;49.910;12.530;2024-01-15T15:13:40;-3.10;99.90
1461;DHT22;724;49.910;12.530;2024-01-15T15:19:51;-3.20;99.90
1461;DHT22;724;49.910;12.530;2024-01-15T15:22:21;-3.20;99.90
1461;DHT22;724;49.910;12.530;2024-01-15T15:24:47;-3.20;99.90
1461;DHT22;724;49.910;12.530;2024-01-15T15:27:15;-3.20;99.90
1461;DHT22;724;49.910;12.530;2024-01-15T15:29:42;-3.30;99.90
1461;DHT22;724;49.910;12.530;2024-01-15T15:32:09;-3.30;99.90
1461;DHT22;724;49.910;12.530;2024-01-15T15:34:38;-3.20;99.90
1461;DHT22;724;49.910;12.530;2024-01-15T15:37:05;-3.10;99.90
1461;DHT22;724;49.910;12.530;2024-01-15T15:39:33;-3.20;1.00
1461;DHT22;724;49.910;12.530;2024-01-15T15:42:03;-3.30;1.00
1461;DHT22;724;49.910;12.530;2024-01-15T15:44:30;-3.30;1.00
1461;DHT22;724;49.910;12.530;2024-01-15T15:46:57;-3.30;1.00
1461;DHT22;724;49.910;12.530;2024-01-15T15:49:24;-3.30;1.00
1461;DHT22;724;49.910;12.530;2024-01-15T15:51:50;-3.30;12.20
1461;DHT22;724;49.910;12.530;2024-01-15T15:54:17;-3.30;10.70
1461;DHT22;724;49.910;12.530;2024-01-15T15:56:45;-3.30;59.30
1461;DHT22;724;49.910;12.530;2024-01-15T15:59:15;-3.30;99.90
1461;DHT22;724;49.910;12.530;2024-01-15T16:01:47;-3.30;99.90
1461;DHT22;724;49.910;12.530;2024-01-15T16:04:14;-3.40;99.90
1461;DHT22;724;49.910;12.530;2024-01-15T16:06:43;-3.30;99.90
1461;DHT22;724;49.910;12.530;2024-01-15T16:09:12;-3.30;99.90
1461;DHT22;724;49.910;12.530;2024-01-15T16:11:39;-3.40;99.90